sensor_id;sensor_type;location;lat;lon;timestamp;P1;durP1;ratioP1;P2;durP2;ratioP2
16531;SDS011;66872;63.142;14.482;2023-08-20T00:00:28;1.10;;;1.00;;
16531;SDS011;66872;63.142;14.482;2023-08-20T00:02:58;0.80;;;0.80;;
16531;SDS011;66872;63.142;14.482;2023-08-20T00:05:28;0.90;;;0.90;;
16531;SDS011;66872;63.142;14.482;2023-08-20T00:07:58;1.10;;;1.00;;
16531;SDS011;66872;63.142;14.482;2023-08-20T00:10:23;1.10;;;1.00;;
16531;SDS011;66872;63.142;14.482;2023-08-20T00:12:49;1.33;;;0.97;;
16531;SDS011;66872;63.142;14.482;2023-08-20T00:15:15;0.80;;;0.80;;
16531;SDS011;66872;63.142;14.482;2023-08-20T00:17:40;0.80;;;0.80;;
16531;SDS011;66872;63.142;14.482;2023-08-20T00:20:09;1.20;;;1.10;;
16531;SDS011;66872;63.142;14.482;2023-08-20T00:22:38;1.00;;;1.00;;
16531;SDS011;66872;63.142;14.482;2023-08-20T00:25:04;0.80;;;0.80;;
16531;SDS011;66872;63.142;14.482;2023-08-20T00:27:31;0.90;;;0.90;;
16531;SDS011;66872;63.142;14.482;2023-08-20T00:29:57;1.20;;;1.00;;
16531;SDS011;66872;63.142;14.482;2023-08-20T00:32:23;3.33;;;1.20;;
16531;SDS011;66872;63.142;14.482;2023-08-20T00:34:49;0.90;;;0.90;;
16531;SDS011;66872;63.142;14.482;2023-08-20T00:37:15;0.73;;;0.73;;
16531;SDS011;66872;63.142;14.482;2023-08-20T00:39:40;0.80;;;0.80;;
16531;SDS011;66872;63.142;14.482;2023-08-20T00:42:06;1.00;;;1.00;;
16531;SDS011;66872;63.142;14.482;2023-08-20T00:44:33;1.10;;;1.00;;
16531;SDS011;66872;63.142;14.482;2023-08-20T00:46:59;0.90;;;0.90;;
16531;SDS011;66872;63.142;14.482;2023-08-20T00:49:26;0.90;;;0.90;;
16531;SDS011;66872;63.142;14.482;2023-08-20T00:51:52;0.87;;;0.87;;
16531;SDS011;66872;63.142;14.482;2023-08-20T00:54:19;0.80;;;0.80;;
16531;SDS011;66872;63.142;14.482;2023-08-20T00:56:46;1.00;;;1.00;;
16531;SDS011;66872;63.142;14.482;2023-08-20T00:59:13;0.90;;;0.90;;
16531;SDS011;66872;63.142;14.482;2023-08-20T01:01:39;1.20;;;1.10;;
16531;SDS011;66872;63.142;14.482;2023-08-20T01:04:05;0.80;;;0.80;;
16531;SDS011;66872;63.142;14.482;2023-08-20T01:06:39;1.03;;;1.03;;
16531;SDS011;66872;63.142;14.482;2023-08-20T01:11:50;0.93;;;0.93;;
16531;SDS011;66872;63.142;14.482;2023-08-20T01:14:20;0.90;;;0.90;;
16531;SDS011;66872;63.142;14.482;2023-08-20T01:16:46;0.90;;;0.90;;
16531;SDS011;66872;63.142;14.482;2023-08-20T01:19:15;1.10;;;1.00;;
16531;SDS011;66872;63.142;14.482;2023-08-20T01:21:56;1.00;;;1.00;;
16531;SDS011;66872;63.142;14.482;2023-08-20T01:27:43;1.10;;;1.00;;
16531;SDS011;66872;63.142;14.482;2023-08-20T01:30:18;1.00;;;1.00;;
16531;SDS011;66872;63.142;14.482;2023-08-20T01:32:46;0.90;;;0.90;;
16531;SDS011;66872;63.142;14.482;2023-08-20T01:35:16;0.70;;;0.70;;
16531;SDS011;66872;63.142;14.482;2023-08-20T01:37:42;0.90;;;0.90;;
16531;SDS011;66872;63.142;14.482;2023-08-20T01:40:08;0.90;;;0.90;;
16531;SDS011;66872;63.142;14.482;2023-08-20T01:42:38;1.00;;;1.00;;
16531;SDS011;66872;63.142;14.482;2023-08-20T01:45:05;0.83;;;0.83;;
16531;SDS011;66872;63.142;14.482;2023-08-20T01:47:35;0.80;;;0.80;;
16531;SDS011;66872;63.142;14.482;2023-08-20T01:50:01;0.90;;;0.90;;
16531;SDS011;66872;63.142;14.482;2023-08-20T01:52:27;0.90;;;0.90;;
16531;SDS011;66872;63.142;14.482;2023-08-20T01:54:54;1.03;;;1.00;;
16531;SDS011;66872;63.142;14.482;2023-08-20T01:57:20;0.90;;;0.90;;
16531;SDS011;66872;63.142;14.482;2023-08-20T01:59:47;0.87;;;0.87;;
16531;SDS011;66872;63.142;14.482;2023-08-20T02:02:13;1.20;;;1.10;;
16531;SDS011;66872;63.142;14.482;2023-08-20T02:04:39;1.00;;;1.00;;
16531;SDS011;66872;63.142;14.482;2023-08-20T02:07:04;1.17;;;1.07;;
16531;SDS011;66872;63.142;14.482;2023-08-20T02:09:30;0.90;;;0.90;;
16531;SDS011;66872;63.142;14.482;2023-08-20T02:11:56;0.90;;;0.90;;
16531;SDS011;66872;63.142;14.482;2023-08-20T02:14:22;0.87;;;0.87;;
16531;SDS011;66872;63.142;14.482;2023-08-20T02:16:47;1.20;;;1.10;;
16531;SDS011;66872;63.142;14.482;2023-08-20T02:19:13;0.90;;;0.90;;
16531;SDS011;66872;63.142;14.482;2023-08-20T02:21:39;1.00;;;1.00;;
16531;SDS011;66872;63.142;14.482;2023-08-20T02:24:05;0.90;;;0.90;;
16531;SDS011;66872;63.142;14.482;2023-08-20T02:26:31;0.90;;;0.90;;
16531;SDS011;66872;63.142;14.482;2023-08-20T02:28:57;1.00;;;1.00;;
16531;SDS011;66872;63.142;14.482;2023-08-20T02:31:23;0.83;;;0.83;;
16531;SDS011;66872;63.142;14.482;2023-08-20T02:33:49;0.90;;;0.90;;
16531;SDS011;66872;63.142;14.482;2023-08-20T02:36:14;1.20;;;1.10;;
16531;SDS011;66872;63.142;14.482;2023-08-20T02:38:40;0.90;;;0.90;;
16531;SDS011;66872;63.142;14.482;2023-08-20T02:41:06;0.90;;;0.90;;
16531;SDS011;66872;63.142;14.482;2023-08-20T02:43:32;1.13;;;1.03;;
16531;SDS011;66872;63.142;14.482;2023-08-20T02:45:57;0.80;;;0.80;;
16531;SDS011;66872;63.142;14.482;2023-08-20T02:48:23;0.97;;;0.97;;
16531;SDS011;66872;63.142;14.482;2023-08-20T02:50:55;0.90;;;0.90;;
16531;SDS011;66872;63.142;14.482;2023-08-20T02:53:21;1.00;;;1.00;;
16531;SDS011;66872;63.142;14.482;2023-08-20T02:55:47;0.93;;;0.93;;
16531;SDS011;66872;63.142;14.482;2023-08-20T02:58:13;1.10;;;1.10;;
16531;SDS011;66872;63.142;14.482;2023-08-20T03:00:39;1.07;;;1.03;;
16531;SDS011;66872;63.142;14.482;2023-08-20T03:03:05;1.10;;;1.00;;
16531;SDS011;66872;63.142;14.482;2023-08-20T03:05:33;0.90;;;0.90;;
16531;SDS011;66872;63.142;14.482;2023-08-20T03:08:00;0.90;;;0.90;;
16531;SDS011;66872;63.142;14.482;2023-08-20T03:10:26;0.90;;;0.90;;
16531;SDS011;66872;63.142;14.482;2023-08-20T03:12:53;1.00;;;1.00;;
16531;SDS011;66872;63.142;14.482;2023-08-20T03:15:18;1.30;;;1.20;;
16531;SDS011;66872;63.142;14.482;2023-08-20T03:17:44;0.80;;;0.80;;
16531;SDS011;66872;63.142;14.482;2023-08-20T03:20:10;0.90;;;0.90;;
16531;SDS011;66872;63.142;14.482;2023-08-20T03:22:36;1.00;;;1.00;;
16531;SDS011;66872;63.142;14.482;2023-08-20T03:25:03;0.90;;;0.90;;
16531;SDS011;66872;63.142;14.482;2023-08-20T03:27:29;0.97;;;0.97;;
16531;SDS011;66872;63.142;14.482;2023-08-20T03:29:55;1.27;;;1.17;;
16531;SDS011;66872;63.142;14.482;2023-08-20T03:32:21;1.00;;;1.00;;
16531;SDS011;66872;63.142;14.482;2023-08-20T03:34:46;1.10;;;1.00;;
16531;SDS011;66872;63.142;14.482;2023-08-20T03:37:12;0.80;;;0.80;;
16531;SDS011;66872;63.142;14.482;2023-08-20T03:39:38;1.17;;;1.07;;
16531;SDS011;66872;63.142;14.482;2023-08-20T03:42:03;0.80;;;0.80;;
16531;SDS011;66872;63.142;14.482;2023-08-20T03:44:30;0.90;;;0.80;;
16531;SDS011;66872;63.142;14.482;2023-08-20T03:46:56;1.20;;;1.10;;
16531;SDS011;66872;63.142;14.482;2023-08-20T03:49:23;0.90;;;0.90;;
16531;SDS011;66872;63.142;14.482;2023-08-20T03:51:48;1.10;;;1.00;;
16531;SDS011;66872;63.142;14.482;2023-08-20T03:54:14;1.17;;;1.10;;
16531;SDS011;66872;63.142;14.482;2023-08-20T03:56:40;1.10;;;1.00;;
16531;SDS011;66872;63.142;14.482;2023-08-20T03:59:05;1.00;;;1.00;;
16531;SDS011;66872;63.142;14.482;2023-08-20T04:01:31;0.90;;;0.90;;
16531;SDS011;66872;63.142;14.482;2023-08-20T04:03:57;0.87;;;0.87;;
16531;SDS011;66872;63.142;14.482;2023-08-20T04:06:23;1.00;;;1.00;;
16531;SDS011;66872;63.142;14.482;2023-08-20T04:08:48;0.90;;;0.90;;
16531;SDS011;66872;63.142;14.482;2023-08-20T04:11:14;0.90;;;0.90;;
16531;SDS011;66872;63.142;14.482;2023-08-20T04:13:40;1.00;;;1.00;;
16531;SDS011;66872;63.142;14.482;2023-08-20T04:16:08;1.07;;;1.00;;
16531;SDS011;66872;63.142;14.482;2023-08-20T04:18:34;0.80;;;0.80;;
16531;SDS011;66872;63.142;14.482;2023-08-20T04:21:00;0.90;;;0.90;;
16531;SDS011;66872;63.142;14.482;2023-08-20T04:23:26;1.00;;;1.00;;
16531;SDS011;66872;63.142;14.482;2023-08-20T04:25:51;0.97;;;0.97;;
16531;SDS011;66872;63.142;14.482;2023-08-20T04:28:17;0.90;;;0.90;;
16531;SDS011;66872;63.142;14.482;2023-08-20T04:30:42;0.90;;;0.90;;
16531;SDS011;66872;63.142;14.482;2023-08-20T04:33:09;0.90;;;0.90;;
16531;SDS011;66872;63.142;14.482;2023-08-20T04:35:34;0.90;;;0.90;;
16531;SDS011;66872;63.142;14.482;2023-08-20T04:38:02;0.90;;;0.90;;
16531;SDS011;66872;63.142;14.482;2023-08-20T04:40:28;0.80;;;0.80;;
16531;SDS011;66872;63.142;14.482;2023-08-20T04:42:54;1.00;;;1.00;;
16531;SDS011;66872;63.142;14.482;2023-08-20T04:45:19;1.00;;;0.90;;
16531;SDS011;66872;63.142;14.482;2023-08-20T04:47:46;0.90;;;0.90;;
16531;SDS011;66872;63.142;14.482;2023-08-20T04:50:12;0.90;;;0.90;;
16531;SDS011;66872;63.142;14.482;2023-08-20T04:52:41;0.93;;;0.93;;
16531;SDS011;66872;63.142;14.482;2023-08-20T04:55:06;1.17;;;1.07;;
16531;SDS011;66872;63.142;14.482;2023-08-20T04:57:33;0.90;;;0.90;;
16531;SDS011;66872;63.142;14.482;2023-08-20T04:59:59;1.00;;;1.00;;
16531;SDS011;66872;63.142;14.482;2023-08-20T05:02:25;1.10;;;1.00;;
16531;SDS011;66872;63.142;14.482;2023-08-20T05:04:50;0.83;;;0.83;;
16531;SDS011;66872;63.142;14.482;2023-08-20T05:07:16;0.80;;;0.80;;
16531;SDS011;66872;63.142;14.482;2023-08-20T05:09:42;1.00;;;1.00;;
16531;SDS011;66872;63.142;14.482;2023-08-20T05:12:08;0.90;;;0.90;;
16531;SDS011;66872;63.142;14.482;2023-08-20T05:14:33;0.97;;;0.97;;
16531;SDS011;66872;63.142;14.482;2023-08-20T05:16:59;0.90;;;0.90;;
16531;SDS011;66872;63.142;14.482;2023-08-20T05:19:25;0.70;;;0.70;;
16531;SDS011;66872;63.142;14.482;2023-08-20T05:21:51;1.00;;;1.00;;
16531;SDS011;66872;63.142;14.482;2023-08-20T05:24:20;1.30;;;1.17;;
16531;SDS011;66872;63.142;14.482;2023-08-20T05:26:47;0.83;;;0.83;;
16531;SDS011;66872;63.142;14.482;2023-08-20T05:29:28;0.90;;;0.90;;
16531;SDS011;66872;63.142;14.482;2023-08-20T05:31:53;1.00;;;1.00;;
16531;SDS011;66872;63.142;14.482;2023-08-20T05:34:19;0.97;;;0.97;;
16531;SDS011;66872;63.142;14.482;2023-08-20T05:36:45;1.00;;;1.00;;
16531;SDS011;66872;63.142;14.482;2023-08-20T05:39:10;1.00;;;0.93;;
16531;SDS011;66872;63.142;14.482;2023-08-20T05:41:36;1.20;;;1.10;;
16531;SDS011;66872;63.142;14.482;2023-08-20T05:44:01;0.87;;;0.87;;
16531;SDS011;66872;63.142;14.482;2023-08-20T05:46:27;1.33;;;1.07;;
16531;SDS011;66872;63.142;14.482;2023-08-20T05:48:53;1.00;;;1.00;;
16531;SDS011;66872;63.142;14.482;2023-08-20T05:51:18;2.08;;;1.10;;
16531;SDS011;66872;63.142;14.482;2023-08-20T05:53:44;0.85;;;0.85;;
16531;SDS011;66872;63.142;14.482;2023-08-20T05:56:10;1.00;;;1.00;;
16531;SDS011;66872;63.142;14.482;2023-08-20T05:58:35;1.02;;;1.00;;
16531;SDS011;66872;63.142;14.482;2023-08-20T06:01:01;0.82;;;0.82;;
16531;SDS011;66872;63.142;14.482;2023-08-20T06:03:26;0.90;;;0.90;;
16531;SDS011;66872;63.142;14.482;2023-08-20T06:05:52;0.85;;;0.85;;
16531;SDS011;66872;63.142;14.482;2023-08-20T06:08:18;1.05;;;0.95;;
16531;SDS011;66872;63.142;14.482;2023-08-20T06:10:43;0.90;;;0.90;;
16531;SDS011;66872;63.142;14.482;2023-08-20T06:13:09;0.80;;;0.80;;
16531;SDS011;66872;63.142;14.482;2023-08-20T06:15:35;0.90;;;0.90;;
16531;SDS011;66872;63.142;14.482;2023-08-20T06:18:00;0.73;;;0.73;;
16531;SDS011;66872;63.142;14.482;2023-08-20T06:20:26;1.00;;;1.00;;
16531;SDS011;66872;63.142;14.482;2023-08-20T06:22:52;1.10;;;0.90;;
16531;SDS011;66872;63.142;14.482;2023-08-20T06:25:17;1.00;;;1.00;;
16531;SDS011;66872;63.142;14.482;2023-08-20T06:27:43;0.90;;;0.90;;
16531;SDS011;66872;63.142;14.482;2023-08-20T06:30:08;0.80;;;0.80;;
16531;SDS011;66872;63.142;14.482;2023-08-20T06:32:35;0.80;;;0.80;;
16531;SDS011;66872;63.142;14.482;2023-08-20T06:35:00;0.93;;;0.93;;
16531;SDS011;66872;63.142;14.482;2023-08-20T06:37:26;1.20;;;1.10;;
16531;SDS011;66872;63.142;14.482;2023-08-20T06:39:51;1.00;;;1.00;;
16531;SDS011;66872;63.142;14.482;2023-08-20T06:42:17;0.90;;;0.90;;
16531;SDS011;66872;63.142;14.482;2023-08-20T06:44:43;0.87;;;0.87;;
16531;SDS011;66872;63.142;14.482;2023-08-20T06:47:08;0.90;;;0.90;;
16531;SDS011;66872;63.142;14.482;2023-08-20T06:49:34;0.87;;;0.87;;
16531;SDS011;66872;63.142;14.482;2023-08-20T06:51:59;1.10;;;1.00;;
16531;SDS011;66872;63.142;14.482;2023-08-20T06:54:25;1.00;;;1.00;;
16531;SDS011;66872;63.142;14.482;2023-08-20T06:56:51;1.00;;;1.00;;
16531;SDS011;66872;63.142;14.482;2023-08-20T06:59:16;0.90;;;0.90;;
16531;SDS011;66872;63.142;14.482;2023-08-20T07:01:42;0.97;;;0.97;;
16531;SDS011;66872;63.142;14.482;2023-08-20T07:04:08;0.90;;;0.90;;
16531;SDS011;66872;63.142;14.482;2023-08-20T07:06:33;0.80;;;0.80;;
16531;SDS011;66872;63.142;14.482;2023-08-20T07:08:59;0.80;;;0.80;;
16531;SDS011;66872;63.142;14.482;2023-08-20T07:11:25;0.80;;;0.80;;
16531;SDS011;66872;63.142;14.482;2023-08-20T07:13:50;0.90;;;0.90;;
16531;SDS011;66872;63.142;14.482;2023-08-20T07:16:16;0.80;;;0.80;;
16531;SDS011;66872;63.142;14.482;2023-08-20T07:18:41;1.20;;;1.10;;
16531;SDS011;66872;63.142;14.482;2023-08-20T07:21:07;0.80;;;0.80;;
16531;SDS011;66872;63.142;14.482;2023-08-20T07:23:33;1.20;;;1.10;;
16531;SDS011;66872;63.142;14.482;2023-08-20T07:26:06;1.00;;;1.00;;
16531;SDS011;66872;63.142;14.482;2023-08-20T07:28:33;1.00;;;1.00;;
16531;SDS011;66872;63.142;14.482;2023-08-20T07:31:17;0.90;;;0.90;;
16531;SDS011;66872;63.142;14.482;2023-08-20T07:33:47;1.10;;;1.05;;
16531;SDS011;66872;63.142;14.482;2023-08-20T07:36:13;0.90;;;0.90;;
16531;SDS011;66872;63.142;14.482;2023-08-20T07:38:39;1.20;;;1.10;;
16531;SDS011;66872;63.142;14.482;2023-08-20T07:41:07;1.00;;;1.00;;
16531;SDS011;66872;63.142;14.482;2023-08-20T07:43:33;0.80;;;0.80;;
16531;SDS011;66872;63.142;14.482;2023-08-20T07:45:59;1.08;;;1.00;;
16531;SDS011;66872;63.142;14.482;2023-08-20T07:48:25;0.90;;;0.90;;
16531;SDS011;66872;63.142;14.482;2023-08-20T07:50:51;1.10;;;1.10;;
16531;SDS011;66872;63.142;14.482;2023-08-20T07:53:16;0.90;;;0.90;;
16531;SDS011;66872;63.142;14.482;2023-08-20T07:55:42;0.98;;;0.98;;
16531;SDS011;66872;63.142;14.482;2023-08-20T07:58:09;1.02;;;1.02;;
16531;SDS011;66872;63.142;14.482;2023-08-20T08:00:35;0.70;;;0.70;;
16531;SDS011;66872;63.142;14.482;2023-08-20T08:03:00;0.90;;;0.90;;
16531;SDS011;66872;63.142;14.482;2023-08-20T08:05:26;0.80;;;0.80;;
16531;SDS011;66872;63.142;14.482;2023-08-20T08:07:51;1.00;;;1.00;;
16531;SDS011;66872;63.142;14.482;2023-08-20T08:10:17;1.00;;;1.00;;
16531;SDS011;66872;63.142;14.482;2023-08-20T08:12:43;0.75;;;0.75;;
16531;SDS011;66872;63.142;14.482;2023-08-20T08:15:08;0.80;;;0.80;;
16531;SDS011;66872;63.142;14.482;2023-08-20T08:17:34;0.90;;;0.90;;
16531;SDS011;66872;63.142;14.482;2023-08-20T08:20:00;0.90;;;0.90;;
16531;SDS011;66872;63.142;14.482;2023-08-20T08:22:25;0.80;;;0.80;;
16531;SDS011;66872;63.142;14.482;2023-08-20T08:24:51;0.88;;;0.88;;
16531;SDS011;66872;63.142;14.482;2023-08-20T08:27:17;0.75;;;0.75;;
16531;SDS011;66872;63.142;14.482;2023-08-20T08:29:42;0.90;;;0.90;;
16531;SDS011;66872;63.142;14.482;2023-08-20T08:32:09;0.88;;;0.88;;
16531;SDS011;66872;63.142;14.482;2023-08-20T08:34:35;1.17;;;1.10;;
16531;SDS011;66872;63.142;14.482;2023-08-20T08:37:00;0.80;;;0.80;;
16531;SDS011;66872;63.142;14.482;2023-08-20T08:39:26;0.90;;;0.90;;
16531;SDS011;66872;63.142;14.482;2023-08-20T08:41:53;0.80;;;0.80;;
16531;SDS011;66872;63.142;14.482;2023-08-20T08:44:25;0.88;;;0.88;;
16531;SDS011;66872;63.142;14.482;2023-08-20T08:46:52;0.85;;;0.85;;
16531;SDS011;66872;63.142;14.482;2023-08-20T08:49:18;0.88;;;0.88;;
16531;SDS011;66872;63.142;14.482;2023-08-20T08:51:44;1.05;;;1.05;;
16531;SDS011;66872;63.142;14.482;2023-08-20T08:54:12;0.90;;;0.90;;
16531;SDS011;66872;63.142;14.482;2023-08-20T08:56:38;0.98;;;0.98;;
16531;SDS011;66872;63.142;14.482;2023-08-20T08:59:04;1.02;;;1.02;;
16531;SDS011;66872;63.142;14.482;2023-08-20T09:01:30;0.90;;;0.90;;
16531;SDS011;66872;63.142;14.482;2023-08-20T09:03:56;0.70;;;0.70;;
16531;SDS011;66872;63.142;14.482;2023-08-20T09:06:22;0.95;;;0.95;;
16531;SDS011;66872;63.142;14.482;2023-08-20T09:08:47;0.80;;;0.80;;
16531;SDS011;66872;63.142;14.482;2023-08-20T09:11:13;0.93;;;0.93;;
16531;SDS011;66872;63.142;14.482;2023-08-20T09:13:39;0.70;;;0.70;;
16531;SDS011;66872;63.142;14.482;2023-08-20T09:16:07;1.05;;;0.95;;
16531;SDS011;66872;63.142;14.482;2023-08-20T09:18:40;0.95;;;0.95;;
16531;SDS011;66872;63.142;14.482;2023-08-20T09:21:07;0.80;;;0.80;;
16531;SDS011;66872;63.142;14.482;2023-08-20T09:23:33;0.90;;;0.90;;
16531;SDS011;66872;63.142;14.482;2023-08-20T09:26:01;1.10;;;1.10;;
16531;SDS011;66872;63.142;14.482;2023-08-20T09:28:27;1.10;;;1.00;;
16531;SDS011;66872;63.142;14.482;2023-08-20T09:30:56;1.05;;;1.05;;
16531;SDS011;66872;63.142;14.482;2023-08-20T09:33:26;1.05;;;0.90;;
16531;SDS011;66872;63.142;14.482;2023-08-20T09:35:52;0.93;;;0.93;;
16531;SDS011;66872;63.142;14.482;2023-08-20T09:38:21;0.80;;;0.80;;
16531;SDS011;66872;63.142;14.482;2023-08-20T09:40:50;1.02;;;1.02;;
16531;SDS011;66872;63.142;14.482;2023-08-20T09:43:17;1.10;;;1.05;;
16531;SDS011;66872;63.142;14.482;2023-08-20T09:45:44;0.88;;;0.88;;
16531;SDS011;66872;63.142;14.482;2023-08-20T09:48:12;0.82;;;0.82;;
16531;SDS011;66872;63.142;14.482;2023-08-20T09:50:45;0.90;;;0.90;;
16531;SDS011;66872;63.142;14.482;2023-08-20T09:53:16;0.85;;;0.85;;
16531;SDS011;66872;63.142;14.482;2023-08-20T09:55:49;1.02;;;0.98;;
16531;SDS011;66872;63.142;14.482;2023-08-20T09:58:17;1.00;;;1.00;;
16531;SDS011;66872;63.142;14.482;2023-08-20T10:00:46;1.00;;;1.00;;
16531;SDS011;66872;63.142;14.482;2023-08-20T10:03:13;0.80;;;0.80;;
16531;SDS011;66872;63.142;14.482;2023-08-20T10:05:39;0.90;;;0.90;;
16531;SDS011;66872;63.142;14.482;2023-08-20T10:08:06;0.90;;;0.90;;
16531;SDS011;66872;63.142;14.482;2023-08-20T10:10:32;0.93;;;0.93;;
16531;SDS011;66872;63.142;14.482;2023-08-20T10:12:59;1.02;;;1.00;;
16531;SDS011;66872;63.142;14.482;2023-08-20T10:15:25;1.00;;;1.00;;
16531;SDS011;66872;63.142;14.482;2023-08-20T10:17:53;0.98;;;0.98;;
16531;SDS011;66872;63.142;14.482;2023-08-20T10:20:18;0.90;;;0.90;;
16531;SDS011;66872;63.142;14.482;2023-08-20T10:22:45;0.90;;;0.90;;
16531;SDS011;66872;63.142;14.482;2023-08-20T10:25:12;0.82;;;0.82;;
16531;SDS011;66872;63.142;14.482;2023-08-20T10:27:47;0.90;;;0.90;;
16531;SDS011;66872;63.142;14.482;2023-08-20T10:30:33;1.08;;;1.05;;
16531;SDS011;66872;63.142;14.482;2023-08-20T10:32:58;1.15;;;1.05;;
16531;SDS011;66872;63.142;14.482;2023-08-20T10:35:28;0.88;;;0.88;;
16531;SDS011;66872;63.142;14.482;2023-08-20T10:38:14;1.00;;;1.00;;
16531;SDS011;66872;63.142;14.482;2023-08-20T10:43:34;0.95;;;0.95;;
16531;SDS011;66872;63.142;14.482;2023-08-20T10:48:41;1.05;;;1.00;;
16531;SDS011;66872;63.142;14.482;2023-08-20T10:53:42;1.70;;;0.90;;
16531;SDS011;66872;63.142;14.482;2023-08-20T10:56:13;0.90;;;0.90;;
16531;SDS011;66872;63.142;14.482;2023-08-20T10:58:41;0.90;;;0.90;;
16531;SDS011;66872;63.142;14.482;2023-08-20T11:01:12;1.15;;;1.05;;
16531;SDS011;66872;63.142;14.482;2023-08-20T11:03:48;1.20;;;1.10;;
16531;SDS011;66872;63.142;14.482;2023-08-20T11:06:15;1.20;;;1.13;;
16531;SDS011;66872;63.142;14.482;2023-08-20T11:08:42;1.00;;;0.98;;
16531;SDS011;66872;63.142;14.482;2023-08-20T11:11:08;1.23;;;1.13;;
16531;SDS011;66872;63.142;14.482;2023-08-20T11:13:35;0.95;;;0.95;;
16531;SDS011;66872;63.142;14.482;2023-08-20T11:16:04;0.90;;;0.90;;
16531;SDS011;66872;63.142;14.482;2023-08-20T11:18:32;1.30;;;1.20;;
16531;SDS011;66872;63.142;14.482;2023-08-20T11:20:58;0.90;;;0.90;;
16531;SDS011;66872;63.142;14.482;2023-08-20T11:23:24;1.02;;;1.02;;
16531;SDS011;66872;63.142;14.482;2023-08-20T11:25:50;1.17;;;1.08;;
16531;SDS011;66872;63.142;14.482;2023-08-20T11:28:16;1.00;;;1.00;;
16531;SDS011;66872;63.142;14.482;2023-08-20T11:30:42;1.20;;;1.10;;
16531;SDS011;66872;63.142;14.482;2023-08-20T11:33:08;1.00;;;1.00;;
16531;SDS011;66872;63.142;14.482;2023-08-20T11:35:34;1.20;;;1.10;;
16531;SDS011;66872;63.142;14.482;2023-08-20T11:38:00;1.20;;;1.10;;
16531;SDS011;66872;63.142;14.482;2023-08-20T11:40:28;1.00;;;1.00;;
16531;SDS011;66872;63.142;14.482;2023-08-20T11:42:54;1.40;;;1.30;;
16531;SDS011;66872;63.142;14.482;2023-08-20T11:45:19;1.17;;;1.10;;
16531;SDS011;66872;63.142;14.482;2023-08-20T11:47:45;1.20;;;1.10;;
16531;SDS011;66872;63.142;14.482;2023-08-20T11:50:11;1.40;;;1.30;;
16531;SDS011;66872;63.142;14.482;2023-08-20T11:52:36;1.10;;;1.08;;
16531;SDS011;66872;63.142;14.482;2023-08-20T11:55:04;1.17;;;1.10;;
16531;SDS011;66872;63.142;14.482;2023-08-20T11:57:31;1.08;;;1.08;;
16531;SDS011;66872;63.142;14.482;2023-08-20T12:00:01;1.40;;;1.30;;
16531;SDS011;66872;63.142;14.482;2023-08-20T12:02:39;0.98;;;0.98;;
16531;SDS011;66872;63.142;14.482;2023-08-20T12:05:06;1.10;;;1.10;;
16531;SDS011;66872;63.142;14.482;2023-08-20T12:07:32;1.20;;;1.10;;
16531;SDS011;66872;63.142;14.482;2023-08-20T12:09:58;1.00;;;1.00;;
16531;SDS011;66872;63.142;14.482;2023-08-20T12:12:43;1.38;;;1.27;;
16531;SDS011;66872;63.142;14.482;2023-08-20T12:15:10;2.17;;;1.50;;
16531;SDS011;66872;63.142;14.482;2023-08-20T12:17:35;1.70;;;1.60;;
16531;SDS011;66872;63.142;14.482;2023-08-20T12:20:01;2.20;;;2.00;;
16531;SDS011;66872;63.142;14.482;2023-08-20T12:22:35;2.53;;;2.10;;
16531;SDS011;66872;63.142;14.482;2023-08-20T12:25:01;3.95;;;2.00;;
16531;SDS011;66872;63.142;14.482;2023-08-20T12:27:26;4.68;;;1.80;;
16531;SDS011;66872;63.142;14.482;2023-08-20T12:29:52;2.33;;;1.90;;
16531;SDS011;66872;63.142;14.482;2023-08-20T12:32:18;6.88;;;4.15;;
16531;SDS011;66872;63.142;14.482;2023-08-20T12:34:44;3.33;;;2.70;;
16531;SDS011;66872;63.142;14.482;2023-08-20T12:37:09;5.88;;;2.60;;
16531;SDS011;66872;63.142;14.482;2023-08-20T12:39:35;9.88;;;2.30;;
16531;SDS011;66872;63.142;14.482;2023-08-20T12:42:00;4.40;;;2.00;;
16531;SDS011;66872;63.142;14.482;2023-08-20T12:44:27;2.10;;;1.70;;
16531;SDS011;66872;63.142;14.482;2023-08-20T12:46:53;3.55;;;1.85;;
16531;SDS011;66872;63.142;14.482;2023-08-20T12:49:18;3.88;;;2.30;;
16531;SDS011;66872;63.142;14.482;2023-08-20T12:51:44;4.55;;;2.20;;
16531;SDS011;66872;63.142;14.482;2023-08-20T12:54:10;2.97;;;2.00;;
16531;SDS011;66872;63.142;14.482;2023-08-20T12:56:36;2.03;;;1.90;;
16531;SDS011;66872;63.142;14.482;2023-08-20T12:59:02;2.38;;;2.10;;
16531;SDS011;66872;63.142;14.482;2023-08-20T13:01:28;2.45;;;1.80;;
16531;SDS011;66872;63.142;14.482;2023-08-20T13:03:53;2.35;;;1.90;;
16531;SDS011;66872;63.142;14.482;2023-08-20T13:06:19;2.28;;;2.08;;
16531;SDS011;66872;63.142;14.482;2023-08-20T13:08:45;3.35;;;2.28;;
16531;SDS011;66872;63.142;14.482;2023-08-20T13:11:12;3.95;;;1.85;;
16531;SDS011;66872;63.142;14.482;2023-08-20T13:13:41;2.53;;;2.00;;
16531;SDS011;66872;63.142;14.482;2023-08-20T13:16:07;4.30;;;2.08;;
16531;SDS011;66872;63.142;14.482;2023-08-20T13:18:34;8.30;;;2.70;;
16531;SDS011;66872;63.142;14.482;2023-08-20T13:21:00;9.05;;;3.00;;
16531;SDS011;66872;63.142;14.482;2023-08-20T13:23:26;9.82;;;2.70;;
16531;SDS011;66872;63.142;14.482;2023-08-20T13:25:52;18.83;;;3.50;;
16531;SDS011;66872;63.142;14.482;2023-08-20T13:28:17;32.53;;;4.45;;
16531;SDS011;66872;63.142;14.482;2023-08-20T13:30:43;34.20;;;5.25;;
16531;SDS011;66872;63.142;14.482;2023-08-20T13:33:09;24.98;;;4.93;;
16531;SDS011;66872;63.142;14.482;2023-08-20T13:35:35;33.45;;;6.68;;
16531;SDS011;66872;63.142;14.482;2023-08-20T13:38:00;23.67;;;4.80;;
16531;SDS011;66872;63.142;14.482;2023-08-20T13:40:26;27.05;;;5.93;;
16531;SDS011;66872;63.142;14.482;2023-08-20T13:42:52;28.50;;;5.55;;
16531;SDS011;66872;63.142;14.482;2023-08-20T13:45:17;28.08;;;5.50;;
16531;SDS011;66872;63.142;14.482;2023-08-20T13:47:43;19.15;;;4.78;;
16531;SDS011;66872;63.142;14.482;2023-08-20T13:50:09;34.85;;;5.22;;
16531;SDS011;66872;63.142;14.482;2023-08-20T13:52:35;83.55;;;11.85;;
16531;SDS011;66872;63.142;14.482;2023-08-20T13:55:00;42.58;;;9.45;;
16531;SDS011;66872;63.142;14.482;2023-08-20T13:57:27;48.05;;;11.50;;
16531;SDS011;66872;63.142;14.482;2023-08-20T13:59:52;88.40;;;22.38;;
16531;SDS011;66872;63.142;14.482;2023-08-20T14:02:18;106.70;;;28.20;;
16531;SDS011;66872;63.142;14.482;2023-08-20T14:04:43;144.13;;;29.43;;
16531;SDS011;66872;63.142;14.482;2023-08-20T14:07:09;130.45;;;29.17;;
16531;SDS011;66872;63.142;14.482;2023-08-20T14:09:35;119.05;;;30.70;;
16531;SDS011;66872;63.142;14.482;2023-08-20T14:12:01;207.27;;;57.10;;
16531;SDS011;66872;63.142;14.482;2023-08-20T14:14:26;174.82;;;53.63;;
16531;SDS011;66872;63.142;14.482;2023-08-20T14:16:52;134.02;;;48.67;;
16531;SDS011;66872;63.142;14.482;2023-08-20T14:19:18;134.00;;;45.92;;
16531;SDS011;66872;63.142;14.482;2023-08-20T14:21:43;127.83;;;43.60;;
16531;SDS011;66872;63.142;14.482;2023-08-20T14:24:09;114.47;;;42.53;;
16531;SDS011;66872;63.142;14.482;2023-08-20T14:26:35;90.75;;;38.85;;
16531;SDS011;66872;63.142;14.482;2023-08-20T14:29:00;81.55;;;37.70;;
16531;SDS011;66872;63.142;14.482;2023-08-20T14:31:26;72.97;;;37.53;;
16531;SDS011;66872;63.142;14.482;2023-08-20T14:33:52;79.60;;;35.63;;
16531;SDS011;66872;63.142;14.482;2023-08-20T14:36:18;70.55;;;36.25;;
16531;SDS011;66872;63.142;14.482;2023-08-20T14:38:44;67.10;;;35.20;;
16531;SDS011;66872;63.142;14.482;2023-08-20T14:41:09;70.90;;;36.17;;
16531;SDS011;66872;63.142;14.482;2023-08-20T14:43:35;69.43;;;35.90;;